South Milford, IN (46786)

12:49 PM EDT on October 02, 2014 (GMT -0400)
Weather on the hill | Change Station
CLOSE
Current Station
Personal Weather Station
Location: Kendallville, IN
Elevation: 1004 ft
Nearby Weather Stations

Elev 1004 ft 41.45 °N, 85.23 °W | Updated 7 minutes ago

Overcast
Overcast
64.5 °F
Feels Like 64.5 °F
N
0.0
Wind Variable Wind from SSE
Gusts 3.0 mph

Today
High -- | Low -- °F
--% Chance of Precip.
Yesterday
High -- | Low -- °F
Precip. -- in
7:38 AM 7:21 PM
First Quarter, 60% visible
Pressure 29.95 in
Visibility 10.0 miles
Clouds Few 3700 ft
Mostly Cloudy 7500 ft
Overcast 9000 ft
Dew Point 60 °F
Humidity 85%
Rainfall 0.00 in
Snow Depth Not available.
UV 2 out of 12
Pollen 3.70 out of 12
Air Quality Not available.
Flu Activity Not available.
METAR KANQ 021635Z AUTO 13005KT 10SM FEW037 BKN075 OVC090 18/13 A2995 RMK

More Conditions Fewer Conditions

Pressure 29.95 in
Visibility 10.0 miles
Clouds Few 3700 ft
Mostly Cloudy 7500 ft
Overcast 9000 ft
Dew Point 60 °F
Humidity 85%
Rainfall 0.00 in
Snow Depth Not available.
UV 2 out of 12
Pollen 3.70 out of 12
Air Quality Not available.
Flu Activity Not available.
METAR KANQ 021635Z AUTO 13005KT 10SM FEW037 BKN075 OVC090 18/13 A2995 RMK

More Conditions Fewer Conditions

10-Day Weather Forecast

Almanac

Astronomy

Oct. 02, 2014 Rise Set
Actual Time 7:38 AM EDT 7:21 PM EDT
Civil Twilight 7:11 AM EDT 7:48 PM EDT
Nautical Twilight 6:39 AM EDT 8:20 PM EDT
Astronomical Twilight 6:06 AM EDT 8:53 PM EDT
Moon 3:30 PM EDT 12:50 AM EDT
Length of Visible Light 12h 37m
Length of Day
11h 42m
Tomorrow will be 2m 44s shorter.
First Quarter, 60% of the Moon is Illuminated
Today
First Quarter
Oct 8
Full
Oct 15
Last Quarter
Oct 23
New
Oct 30
First Quarter

Today's Extremes

State Highs State Lows

Community

WunderPhotos

Upload Photos

1,758,294 photos uploaded!

WunderBlogs® & News

Nearby

Snow Depth

Station Depth Elevation
No new snow has been reported.

Earthquake Activity

City Distance Mag. Time & Date
No recent earthquake activity has been reported nearby.
Minimum magnitude displayed is 2.5.

Coastal Water Temperatures

Place Temperature
No Stations Reporting

Nearby Weather Stations